sensor_id;sensor_type;location;lat;lon;timestamp;P1;durP1;ratioP1;P2;durP2;ratioP2
18188;SDS011;9219;50.396;8.546;2024-02-21T00:02:03;18.20;;;5.80;;
18188;SDS011;9219;50.396;8.546;2024-02-21T00:04:31;15.90;;;5.30;;
18188;SDS011;9219;50.396;8.546;2024-02-21T00:06:58;14.87;;;5.03;;
18188;SDS011;9219;50.396;8.546;2024-02-21T00:09:26;16.17;;;6.00;;
18188;SDS011;9219;50.396;8.546;2024-02-21T00:11:54;12.07;;;5.57;;
18188;SDS011;9219;50.396;8.546;2024-02-21T00:19:27;11.83;;;5.67;;
18188;SDS011;9219;50.396;8.546;2024-02-21T00:21:54;15.20;;;5.47;;
18188;SDS011;9219;50.396;8.546;2024-02-21T00:24:21;11.83;;;5.03;;
18188;SDS011;9219;50.396;8.546;2024-02-21T00:26:49;18.03;;;7.57;;
18188;SDS011;9219;50.396;8.546;2024-02-21T00:29:17;15.27;;;6.10;;
18188;SDS011;9219;50.396;8.546;2024-02-21T00:31:44;15.53;;;5.97;;
18188;SDS011;9219;50.396;8.546;2024-02-21T00:34:11;12.87;;;6.80;;
18188;SDS011;9219;50.396;8.546;2024-02-21T00:40:11;16.13;;;6.53;;
18188;SDS011;9219;50.396;8.546;2024-02-21T00:42:39;13.17;;;4.60;;
18188;SDS011;9219;50.396;8.546;2024-02-21T00:45:07;15.13;;;5.90;;
18188;SDS011;9219;50.396;8.546;2024-02-21T00:47:35;10.97;;;5.03;;
18188;SDS011;9219;50.396;8.546;2024-02-21T00:50:02;10.53;;;4.80;;
18188;SDS011;9219;50.396;8.546;2024-02-21T00:52:33;14.33;;;5.33;;
18188;SDS011;9219;50.396;8.546;2024-02-21T00:55:01;11.97;;;5.57;;
18188;SDS011;9219;50.396;8.546;2024-02-21T00:57:29;11.00;;;4.63;;
18188;SDS011;9219;50.396;8.546;2024-02-21T00:59:56;20.70;;;5.63;;
18188;SDS011;9219;50.396;8.546;2024-02-21T01:02:38;17.47;;;5.80;;
18188;SDS011;9219;50.396;8.546;2024-02-21T01:05:06;13.90;;;7.63;;
18188;SDS011;9219;50.396;8.546;2024-02-21T01:07:34;13.23;;;6.13;;
18188;SDS011;9219;50.396;8.546;2024-02-21T01:10:01;21.30;;;5.50;;
18188;SDS011;9219;50.396;8.546;2024-02-21T01:12:29;16.63;;;5.37;;
18188;SDS011;9219;50.396;8.546;2024-02-21T01:14:57;17.17;;;6.43;;
18188;SDS011;9219;50.396;8.546;2024-02-21T01:17:24;21.37;;;8.50;;
18188;SDS011;9219;50.396;8.546;2024-02-21T01:19:55;14.43;;;6.23;;
18188;SDS011;9219;50.396;8.546;2024-02-21T01:27:29;13.73;;;6.87;;
18188;SDS011;9219;50.396;8.546;2024-02-21T01:29:56;12.73;;;5.37;;
18188;SDS011;9219;50.396;8.546;2024-02-21T01:32:24;15.60;;;5.27;;
18188;SDS011;9219;50.396;8.546;2024-02-21T01:34:52;10.73;;;5.87;;
18188;SDS011;9219;50.396;8.546;2024-02-21T01:37:19;21.40;;;5.77;;
18188;SDS011;9219;50.396;8.546;2024-02-21T01:39:46;16.57;;;5.83;;
18188;SDS011;9219;50.396;8.546;2024-02-21T01:42:15;15.80;;;6.73;;
18188;SDS011;9219;50.396;8.546;2024-02-21T01:51:06;16.63;;;6.13;;
18188;SDS011;9219;50.396;8.546;2024-02-21T01:53:36;14.07;;;5.57;;
18188;SDS011;9219;50.396;8.546;2024-02-21T01:56:07;12.90;;;6.30;;
18188;SDS011;9219;50.396;8.546;2024-02-21T01:58:35;14.60;;;5.93;;
18188;SDS011;9219;50.396;8.546;2024-02-21T02:01:05;16.60;;;5.60;;
18188;SDS011;9219;50.396;8.546;2024-02-21T02:03:32;14.50;;;6.67;;
18188;SDS011;9219;50.396;8.546;2024-02-21T02:06:00;10.60;;;5.77;;
18188;SDS011;9219;50.396;8.546;2024-02-21T02:08:28;20.47;;;6.53;;
18188;SDS011;9219;50.396;8.546;2024-02-21T02:10:56;23.80;;;7.10;;
18188;SDS011;9219;50.396;8.546;2024-02-21T02:21:10;13.53;;;6.03;;
18188;SDS011;9219;50.396;8.546;2024-02-21T02:23:50;11.10;;;5.53;;
18188;SDS011;9219;50.396;8.546;2024-02-21T02:26:18;10.13;;;4.97;;
18188;SDS011;9219;50.396;8.546;2024-02-21T02:28:45;14.00;;;5.43;;
18188;SDS011;9219;50.396;8.546;2024-02-21T02:31:13;14.40;;;5.83;;
18188;SDS011;9219;50.396;8.546;2024-02-21T02:33:42;13.67;;;5.83;;
18188;SDS011;9219;50.396;8.546;2024-02-21T02:36:10;18.67;;;7.03;;
18188;SDS011;9219;50.396;8.546;2024-02-21T02:38:37;19.63;;;6.40;;
18188;SDS011;9219;50.396;8.546;2024-02-21T02:45:15;13.07;;;5.37;;
18188;SDS011;9219;50.396;8.546;2024-02-21T02:47:43;14.67;;;5.20;;
18188;SDS011;9219;50.396;8.546;2024-02-21T02:50:11;13.13;;;5.83;;
18188;SDS011;9219;50.396;8.546;2024-02-21T02:52:39;9.07;;;5.60;;
18188;SDS011;9219;50.396;8.546;2024-02-21T02:55:07;16.33;;;6.70;;
18188;SDS011;9219;50.396;8.546;2024-02-21T02:57:35;20.93;;;7.77;;
18188;SDS011;9219;50.396;8.546;2024-02-21T03:00:02;15.57;;;5.53;;
18188;SDS011;9219;50.396;8.546;2024-02-21T03:02:31;9.63;;;5.03;;
18188;SDS011;9219;50.396;8.546;2024-02-21T03:10:22;12.33;;;4.90;;
18188;SDS011;9219;50.396;8.546;2024-02-21T03:12:49;14.70;;;5.10;;
18188;SDS011;9219;50.396;8.546;2024-02-21T03:15:18;19.83;;;5.63;;
18188;SDS011;9219;50.396;8.546;2024-02-21T03:17:45;16.00;;;5.90;;
18188;SDS011;9219;50.396;8.546;2024-02-21T03:20:13;13.73;;;6.67;;
18188;SDS011;9219;50.396;8.546;2024-02-21T03:22:40;11.53;;;5.10;;
18188;SDS011;9219;50.396;8.546;2024-02-21T03:25:08;15.77;;;5.90;;
18188;SDS011;9219;50.396;8.546;2024-02-21T03:30:20;10.20;;;4.50;;
18188;SDS011;9219;50.396;8.546;2024-02-21T03:32:48;16.03;;;5.23;;
18188;SDS011;9219;50.396;8.546;2024-02-21T03:35:15;18.10;;;4.57;;
18188;SDS011;9219;50.396;8.546;2024-02-21T03:37:44;13.43;;;5.30;;
18188;SDS011;9219;50.396;8.546;2024-02-21T03:40:11;15.30;;;5.93;;
18188;SDS011;9219;50.396;8.546;2024-02-21T03:42:39;10.47;;;4.77;;
18188;SDS011;9219;50.396;8.546;2024-02-21T03:45:07;14.37;;;5.03;;
18188;SDS011;9219;50.396;8.546;2024-02-21T03:47:36;24.33;;;5.87;;
18188;SDS011;9219;50.396;8.546;2024-02-21T03:55:33;15.30;;;4.93;;
18188;SDS011;9219;50.396;8.546;2024-02-21T03:58:00;12.27;;;5.07;;
18188;SDS011;9219;50.396;8.546;2024-02-21T04:00:30;17.80;;;6.00;;
18188;SDS011;9219;50.396;8.546;2024-02-21T04:02:57;11.77;;;4.77;;
18188;SDS011;9219;50.396;8.546;2024-02-21T04:05:25;16.93;;;5.17;;
18188;SDS011;9219;50.396;8.546;2024-02-21T04:07:53;12.23;;;4.13;;
18188;SDS011;9219;50.396;8.546;2024-02-21T04:10:22;9.03;;;5.43;;
18188;SDS011;9219;50.396;8.546;2024-02-21T04:12:50;13.97;;;5.10;;
18188;SDS011;9219;50.396;8.546;2024-02-21T04:20:52;16.30;;;6.10;;
18188;SDS011;9219;50.396;8.546;2024-02-21T04:23:19;9.90;;;5.07;;
18188;SDS011;9219;50.396;8.546;2024-02-21T04:25:47;11.53;;;5.23;;
18188;SDS011;9219;50.396;8.546;2024-02-21T04:28:14;13.20;;;7.20;;
18188;SDS011;9219;50.396;8.546;2024-02-21T04:30:41;12.23;;;5.00;;
18188;SDS011;9219;50.396;8.546;2024-02-21T04:33:08;10.47;;;4.73;;
18188;SDS011;9219;50.396;8.546;2024-02-21T04:35:36;18.93;;;6.20;;
18188;SDS011;9219;50.396;8.546;2024-02-21T04:38:05;14.47;;;5.20;;
18188;SDS011;9219;50.396;8.546;2024-02-21T04:44:51;11.83;;;4.67;;
18188;SDS011;9219;50.396;8.546;2024-02-21T04:47:19;9.73;;;4.93;;
18188;SDS011;9219;50.396;8.546;2024-02-21T04:49:59;10.30;;;4.90;;
18188;SDS011;9219;50.396;8.546;2024-02-21T04:52:50;18.80;;;5.97;;
18188;SDS011;9219;50.396;8.546;2024-02-21T04:55:25;11.67;;;5.87;;
18188;SDS011;9219;50.396;8.546;2024-02-21T04:57:55;9.97;;;5.10;;
18188;SDS011;9219;50.396;8.546;2024-02-21T05:00:24;13.90;;;5.50;;
18188;SDS011;9219;50.396;8.546;2024-02-21T05:02:51;12.97;;;4.87;;
18188;SDS011;9219;50.396;8.546;2024-02-21T05:08:48;12.90;;;4.83;;
18188;SDS011;9219;50.396;8.546;2024-02-21T05:11:15;13.13;;;5.33;;
18188;SDS011;9219;50.396;8.546;2024-02-21T05:13:43;12.97;;;5.53;;
18188;SDS011;9219;50.396;8.546;2024-02-21T05:16:10;19.33;;;5.73;;
18188;SDS011;9219;50.396;8.546;2024-02-21T05:18:38;10.30;;;4.77;;
18188;SDS011;9219;50.396;8.546;2024-02-21T05:21:06;12.53;;;5.23;;
18188;SDS011;9219;50.396;8.546;2024-02-21T05:23:33;19.03;;;6.57;;
18188;SDS011;9219;50.396;8.546;2024-02-21T05:26:01;13.73;;;5.33;;
18188;SDS011;9219;50.396;8.546;2024-02-21T05:33:34;11.77;;;5.23;;
18188;SDS011;9219;50.396;8.546;2024-02-21T05:36:01;17.67;;;5.80;;
18188;SDS011;9219;50.396;8.546;2024-02-21T05:38:29;14.97;;;6.17;;
18188;SDS011;9219;50.396;8.546;2024-02-21T05:40:56;13.53;;;5.80;;
18188;SDS011;9219;50.396;8.546;2024-02-21T05:43:24;17.60;;;5.83;;
18188;SDS011;9219;50.396;8.546;2024-02-21T05:45:51;11.87;;;4.73;;
18188;SDS011;9219;50.396;8.546;2024-02-21T05:48:18;12.43;;;4.80;;
18188;SDS011;9219;50.396;8.546;2024-02-21T05:50:46;16.93;;;5.63;;
18188;SDS011;9219;50.396;8.546;2024-02-21T05:57:21;16.80;;;5.73;;
18188;SDS011;9219;50.396;8.546;2024-02-21T05:59:49;14.57;;;4.40;;
18188;SDS011;9219;50.396;8.546;2024-02-21T06:02:16;13.40;;;5.30;;
18188;SDS011;9219;50.396;8.546;2024-02-21T06:04:43;13.43;;;5.63;;
18188;SDS011;9219;50.396;8.546;2024-02-21T06:07:12;9.93;;;4.37;;
18188;SDS011;9219;50.396;8.546;2024-02-21T06:09:40;10.93;;;5.20;;
18188;SDS011;9219;50.396;8.546;2024-02-21T06:12:07;10.80;;;4.93;;
18188;SDS011;9219;50.396;8.546;2024-02-21T06:21:11;18.97;;;7.50;;
18188;SDS011;9219;50.396;8.546;2024-02-21T06:23:39;11.23;;;4.20;;
18188;SDS011;9219;50.396;8.546;2024-02-21T06:26:06;17.43;;;5.83;;
18188;SDS011;9219;50.396;8.546;2024-02-21T06:28:33;18.40;;;5.07;;
18188;SDS011;9219;50.396;8.546;2024-02-21T06:31:00;16.30;;;5.13;;
18188;SDS011;9219;50.396;8.546;2024-02-21T06:33:27;18.43;;;5.67;;
18188;SDS011;9219;50.396;8.546;2024-02-21T06:35:55;13.07;;;5.53;;
18188;SDS011;9219;50.396;8.546;2024-02-21T06:38:23;12.97;;;5.27;;
18188;SDS011;9219;50.396;8.546;2024-02-21T06:45:56;11.00;;;5.43;;
18188;SDS011;9219;50.396;8.546;2024-02-21T06:48:24;13.77;;;4.97;;
18188;SDS011;9219;50.396;8.546;2024-02-21T06:50:51;15.20;;;6.23;;
18188;SDS011;9219;50.396;8.546;2024-02-21T06:53:19;14.83;;;5.27;;
18188;SDS011;9219;50.396;8.546;2024-02-21T06:55:46;15.13;;;5.60;;
18188;SDS011;9219;50.396;8.546;2024-02-21T06:58:13;17.23;;;7.57;;
18188;SDS011;9219;50.396;8.546;2024-02-21T07:00:43;17.17;;;5.20;;
18188;SDS011;9219;50.396;8.546;2024-02-21T07:03:11;17.67;;;5.80;;
18188;SDS011;9219;50.396;8.546;2024-02-21T07:10:45;11.30;;;4.53;;
18188;SDS011;9219;50.396;8.546;2024-02-21T07:13:13;19.23;;;5.17;;
18188;SDS011;9219;50.396;8.546;2024-02-21T07:15:41;8.20;;;4.07;;
18188;SDS011;9219;50.396;8.546;2024-02-21T07:18:08;11.60;;;4.60;;
18188;SDS011;9219;50.396;8.546;2024-02-21T07:20:36;10.13;;;4.47;;
18188;SDS011;9219;50.396;8.546;2024-02-21T07:23:04;10.83;;;4.67;;
18188;SDS011;9219;50.396;8.546;2024-02-21T07:25:31;14.37;;;5.40;;
18188;SDS011;9219;50.396;8.546;2024-02-21T07:27:59;11.43;;;5.17;;
18188;SDS011;9219;50.396;8.546;2024-02-21T07:35:32;14.37;;;6.47;;
18188;SDS011;9219;50.396;8.546;2024-02-21T07:37:59;10.73;;;5.00;;
18188;SDS011;9219;50.396;8.546;2024-02-21T07:40:26;12.30;;;6.07;;
18188;SDS011;9219;50.396;8.546;2024-02-21T07:42:53;17.00;;;5.53;;
18188;SDS011;9219;50.396;8.546;2024-02-21T07:45:21;10.13;;;5.57;;
18188;SDS011;9219;50.396;8.546;2024-02-21T07:47:49;18.40;;;6.80;;
18188;SDS011;9219;50.396;8.546;2024-02-21T07:50:17;12.13;;;5.40;;
18188;SDS011;9219;50.396;8.546;2024-02-21T07:52:45;13.20;;;5.77;;
18188;SDS011;9219;50.396;8.546;2024-02-21T08:00:18;12.10;;;5.20;;
18188;SDS011;9219;50.396;8.546;2024-02-21T08:02:47;13.77;;;5.47;;
18188;SDS011;9219;50.396;8.546;2024-02-21T08:05:15;11.03;;;5.07;;
18188;SDS011;9219;50.396;8.546;2024-02-21T08:07:42;10.87;;;4.97;;
18188;SDS011;9219;50.396;8.546;2024-02-21T08:10:10;10.57;;;4.70;;
18188;SDS011;9219;50.396;8.546;2024-02-21T08:12:38;9.70;;;5.03;;
18188;SDS011;9219;50.396;8.546;2024-02-21T08:15:05;10.10;;;4.67;;
18188;SDS011;9219;50.396;8.546;2024-02-21T08:17:35;17.30;;;5.47;;
18188;SDS011;9219;50.396;8.546;2024-02-21T08:25:07;10.93;;;4.20;;
18188;SDS011;9219;50.396;8.546;2024-02-21T08:27:34;9.87;;;4.93;;
18188;SDS011;9219;50.396;8.546;2024-02-21T08:30:02;9.50;;;4.67;;
18188;SDS011;9219;50.396;8.546;2024-02-21T08:32:30;14.33;;;5.30;;
18188;SDS011;9219;50.396;8.546;2024-02-21T08:34:58;17.23;;;4.77;;
18188;SDS011;9219;50.396;8.546;2024-02-21T08:37:26;11.57;;;5.20;;
18188;SDS011;9219;50.396;8.546;2024-02-21T08:39:54;9.83;;;4.43;;
18188;SDS011;9219;50.396;8.546;2024-02-21T08:42:22;8.20;;;4.37;;
18188;SDS011;9219;50.396;8.546;2024-02-21T08:44:49;14.03;;;5.20;;
18188;SDS011;9219;50.396;8.546;2024-02-21T08:58:40;12.00;;;4.97;;
18188;SDS011;9219;50.396;8.546;2024-02-21T09:01:16;7.07;;;3.20;;
18188;SDS011;9219;50.396;8.546;2024-02-21T09:03:43;11.17;;;4.17;;
18188;SDS011;9219;50.396;8.546;2024-02-21T09:06:24;16.10;;;5.17;;
18188;SDS011;9219;50.396;8.546;2024-02-21T09:09:35;9.07;;;4.70;;
18188;SDS011;9219;50.396;8.546;2024-02-21T09:12:07;15.67;;;4.13;;
18188;SDS011;9219;50.396;8.546;2024-02-21T09:14:38;11.47;;;5.20;;
18188;SDS011;9219;50.396;8.546;2024-02-21T09:17:49;7.30;;;4.03;;
18188;SDS011;9219;50.396;8.546;2024-02-21T09:24:08;21.30;;;4.70;;
18188;SDS011;9219;50.396;8.546;2024-02-21T09:26:35;5.73;;;3.43;;
18188;SDS011;9219;50.396;8.546;2024-02-21T09:29:03;9.83;;;4.17;;
18188;SDS011;9219;50.396;8.546;2024-02-21T09:31:30;15.33;;;4.67;;
18188;SDS011;9219;50.396;8.546;2024-02-21T09:33:58;6.70;;;3.20;;
18188;SDS011;9219;50.396;8.546;2024-02-21T09:36:25;8.43;;;3.93;;
18188;SDS011;9219;50.396;8.546;2024-02-21T09:38:53;10.40;;;4.67;;
18188;SDS011;9219;50.396;8.546;2024-02-21T09:41:25;8.43;;;5.03;;
18188;SDS011;9219;50.396;8.546;2024-02-21T09:48:11;10.00;;;3.37;;
18188;SDS011;9219;50.396;8.546;2024-02-21T09:51:01;10.83;;;4.23;;
18188;SDS011;9219;50.396;8.546;2024-02-21T09:53:29;8.57;;;3.70;;
18188;SDS011;9219;50.396;8.546;2024-02-21T09:55:58;8.93;;;4.20;;
18188;SDS011;9219;50.396;8.546;2024-02-21T09:58:26;7.07;;;3.30;;
18188;SDS011;9219;50.396;8.546;2024-02-21T10:00:54;8.80;;;3.80;;
18188;SDS011;9219;50.396;8.546;2024-02-21T10:03:24;14.70;;;4.93;;
18188;SDS011;9219;50.396;8.546;2024-02-21T10:10:57;11.93;;;3.90;;
18188;SDS011;9219;50.396;8.546;2024-02-21T10:13:27;11.63;;;3.63;;
18188;SDS011;9219;50.396;8.546;2024-02-21T10:16:02;8.20;;;3.67;;
18188;SDS011;9219;50.396;8.546;2024-02-21T10:18:30;9.27;;;3.33;;
18188;SDS011;9219;50.396;8.546;2024-02-21T10:21:04;9.43;;;3.30;;
18188;SDS011;9219;50.396;8.546;2024-02-21T10:23:42;12.23;;;4.13;;
18188;SDS011;9219;50.396;8.546;2024-02-21T10:26:11;6.63;;;3.60;;
18188;SDS011;9219;50.396;8.546;2024-02-21T10:33:43;10.23;;;4.40;;
18188;SDS011;9219;50.396;8.546;2024-02-21T10:36:11;7.97;;;3.13;;
18188;SDS011;9219;50.396;8.546;2024-02-21T10:38:39;5.87;;;3.40;;
18188;SDS011;9219;50.396;8.546;2024-02-21T10:41:07;11.90;;;3.67;;
18188;SDS011;9219;50.396;8.546;2024-02-21T10:43:37;8.40;;;3.47;;
18188;SDS011;9219;50.396;8.546;2024-02-21T10:46:07;14.00;;;4.17;;
18188;SDS011;9219;50.396;8.546;2024-02-21T10:48:38;13.27;;;4.63;;
18188;SDS011;9219;50.396;8.546;2024-02-21T10:53:59;10.57;;;4.40;;
18188;SDS011;9219;50.396;8.546;2024-02-21T10:56:38;8.87;;;3.83;;
18188;SDS011;9219;50.396;8.546;2024-02-21T10:59:07;10.97;;;4.87;;
18188;SDS011;9219;50.396;8.546;2024-02-21T11:01:35;11.10;;;5.07;;
18188;SDS011;9219;50.396;8.546;2024-02-21T11:04:05;13.87;;;4.80;;
18188;SDS011;9219;50.396;8.546;2024-02-21T11:06:35;9.37;;;3.93;;
18188;SDS011;9219;50.396;8.546;2024-02-21T11:09:05;13.13;;;5.27;;
18188;SDS011;9219;50.396;8.546;2024-02-21T11:16:39;10.10;;;4.40;;
18188;SDS011;9219;50.396;8.546;2024-02-21T11:19:09;14.17;;;6.40;;
18188;SDS011;9219;50.396;8.546;2024-02-21T11:21:45;8.90;;;4.63;;
18188;SDS011;9219;50.396;8.546;2024-02-21T11:24:14;12.60;;;5.00;;
18188;SDS011;9219;50.396;8.546;2024-02-21T11:26:51;10.00;;;5.33;;
18188;SDS011;9219;50.396;8.546;2024-02-21T11:29:22;9.77;;;5.17;;
18188;SDS011;9219;50.396;8.546;2024-02-21T11:31:51;9.50;;;4.90;;
18188;SDS011;9219;50.396;8.546;2024-02-21T11:41:36;11.30;;;5.10;;
18188;SDS011;9219;50.396;8.546;2024-02-21T11:44:04;12.00;;;5.17;;
18188;SDS011;9219;50.396;8.546;2024-02-21T11:46:31;7.90;;;4.77;;
18188;SDS011;9219;50.396;8.546;2024-02-21T11:48:58;13.60;;;4.43;;
18188;SDS011;9219;50.396;8.546;2024-02-21T11:51:27;16.30;;;5.80;;
18188;SDS011;9219;50.396;8.546;2024-02-21T11:53:54;9.77;;;4.40;;
18188;SDS011;9219;50.396;8.546;2024-02-21T11:56:27;9.47;;;4.47;;
18188;SDS011;9219;50.396;8.546;2024-02-21T11:58:55;10.17;;;5.00;;
18188;SDS011;9219;50.396;8.546;2024-02-21T12:06:34;10.57;;;4.50;;
18188;SDS011;9219;50.396;8.546;2024-02-21T12:09:01;18.13;;;4.23;;
18188;SDS011;9219;50.396;8.546;2024-02-21T12:11:29;12.07;;;4.10;;
18188;SDS011;9219;50.396;8.546;2024-02-21T12:13:59;8.00;;;4.70;;
18188;SDS011;9219;50.396;8.546;2024-02-21T12:16:27;12.27;;;4.40;;
18188;SDS011;9219;50.396;8.546;2024-02-21T12:18:55;9.77;;;4.23;;
18188;SDS011;9219;50.396;8.546;2024-02-21T12:21:26;14.80;;;4.57;;
18188;SDS011;9219;50.396;8.546;2024-02-21T12:23:57;12.83;;;4.70;;
18188;SDS011;9219;50.396;8.546;2024-02-21T12:31:30;7.87;;;3.50;;
18188;SDS011;9219;50.396;8.546;2024-02-21T12:33:58;11.90;;;4.30;;
18188;SDS011;9219;50.396;8.546;2024-02-21T12:36:26;9.70;;;3.57;;
18188;SDS011;9219;50.396;8.546;2024-02-21T12:38:53;11.83;;;3.60;;
18188;SDS011;9219;50.396;8.546;2024-02-21T12:41:21;14.57;;;5.23;;
18188;SDS011;9219;50.396;8.546;2024-02-21T12:43:48;9.17;;;3.93;;
18188;SDS011;9219;50.396;8.546;2024-02-21T12:46:15;8.27;;;3.63;;
18188;SDS011;9219;50.396;8.546;2024-02-21T12:48:44;5.03;;;3.60;;
18188;SDS011;9219;50.396;8.546;2024-02-21T12:56:16;5.23;;;2.77;;
18188;SDS011;9219;50.396;8.546;2024-02-21T12:58:43;8.10;;;3.10;;
18188;SDS011;9219;50.396;8.546;2024-02-21T13:01:11;8.43;;;2.90;;
18188;SDS011;9219;50.396;8.546;2024-02-21T13:03:38;10.73;;;2.93;;
18188;SDS011;9219;50.396;8.546;2024-02-21T13:06:05;8.77;;;3.00;;
18188;SDS011;9219;50.396;8.546;2024-02-21T13:08:36;6.53;;;2.80;;
18188;SDS011;9219;50.396;8.546;2024-02-21T13:11:03;4.50;;;2.70;;
18188;SDS011;9219;50.396;8.546;2024-02-21T13:16:43;6.33;;;2.40;;
18188;SDS011;9219;50.396;8.546;2024-02-21T13:19:11;5.97;;;2.83;;
18188;SDS011;9219;50.396;8.546;2024-02-21T13:21:40;8.13;;;3.03;;
18188;SDS011;9219;50.396;8.546;2024-02-21T13:24:07;5.97;;;2.63;;
18188;SDS011;9219;50.396;8.546;2024-02-21T13:26:34;8.97;;;2.73;;
18188;SDS011;9219;50.396;8.546;2024-02-21T13:29:02;11.97;;;3.20;;
18188;SDS011;9219;50.396;8.546;2024-02-21T13:31:30;7.33;;;3.00;;
18188;SDS011;9219;50.396;8.546;2024-02-21T13:37:56;7.80;;;3.03;;
18188;SDS011;9219;50.396;8.546;2024-02-21T13:40:23;5.57;;;3.07;;
18188;SDS011;9219;50.396;8.546;2024-02-21T13:42:51;5.63;;;2.77;;
18188;SDS011;9219;50.396;8.546;2024-02-21T13:45:20;6.07;;;2.83;;
18188;SDS011;9219;50.396;8.546;2024-02-21T13:47:47;11.57;;;3.33;;
18188;SDS011;9219;50.396;8.546;2024-02-21T13:50:15;9.23;;;3.03;;
18188;SDS011;9219;50.396;8.546;2024-02-21T13:52:43;6.47;;;2.80;;
18188;SDS011;9219;50.396;8.546;2024-02-21T13:58:52;3.57;;;2.30;;
18188;SDS011;9219;50.396;8.546;2024-02-21T14:01:20;6.73;;;2.67;;
18188;SDS011;9219;50.396;8.546;2024-02-21T14:03:47;6.87;;;2.33;;
18188;SDS011;9219;50.396;8.546;2024-02-21T14:06:15;12.13;;;2.53;;
18188;SDS011;9219;50.396;8.546;2024-02-21T14:08:43;5.20;;;3.30;;
18188;SDS011;9219;50.396;8.546;2024-02-21T14:11:10;11.03;;;3.50;;
18188;SDS011;9219;50.396;8.546;2024-02-21T14:13:37;7.33;;;2.53;;
18188;SDS011;9219;50.396;8.546;2024-02-21T14:16:09;13.90;;;3.20;;
18188;SDS011;9219;50.396;8.546;2024-02-21T14:23:44;22.97;;;3.60;;
18188;SDS011;9219;50.396;8.546;2024-02-21T14:26:11;8.17;;;2.87;;
18188;SDS011;9219;50.396;8.546;2024-02-21T14:28:38;9.07;;;3.43;;
18188;SDS011;9219;50.396;8.546;2024-02-21T14:31:06;4.67;;;2.63;;
18188;SDS011;9219;50.396;8.546;2024-02-21T14:33:34;7.97;;;3.33;;
18188;SDS011;9219;50.396;8.546;2024-02-21T14:36:02;3.23;;;2.70;;
18188;SDS011;9219;50.396;8.546;2024-02-21T14:38:30;8.73;;;3.40;;
18188;SDS011;9219;50.396;8.546;2024-02-21T14:40:59;14.83;;;3.77;;
18188;SDS011;9219;50.396;8.546;2024-02-21T14:48:31;8.07;;;3.10;;
18188;SDS011;9219;50.396;8.546;2024-02-21T14:50:59;11.87;;;4.87;;
18188;SDS011;9219;50.396;8.546;2024-02-21T14:53:27;11.00;;;4.03;;
18188;SDS011;9219;50.396;8.546;2024-02-21T14:55:55;6.57;;;2.70;;
18188;SDS011;9219;50.396;8.546;2024-02-21T14:58:23;6.77;;;3.13;;
18188;SDS011;9219;50.396;8.546;2024-02-21T15:00:51;11.77;;;3.83;;
18188;SDS011;9219;50.396;8.546;2024-02-21T15:03:20;6.87;;;3.63;;
18188;SDS011;9219;50.396;8.546;2024-02-21T15:05:48;11.73;;;3.37;;
18188;SDS011;9219;50.396;8.546;2024-02-21T15:08:49;6.93;;;3.60;;
18188;SDS011;9219;50.396;8.546;2024-02-21T15:11:17;9.87;;;4.57;;
18188;SDS011;9219;50.396;8.546;2024-02-21T15:13:45;12.43;;;3.20;;
18188;SDS011;9219;50.396;8.546;2024-02-21T15:16:12;7.53;;;3.23;;
18188;SDS011;9219;50.396;8.546;2024-02-21T15:18:40;11.20;;;2.60;;
18188;SDS011;9219;50.396;8.546;2024-02-21T15:21:07;11.23;;;3.00;;
18188;SDS011;9219;50.396;8.546;2024-02-21T15:23:39;5.83;;;2.33;;
18188;SDS011;9219;50.396;8.546;2024-02-21T15:26:08;8.60;;;2.70;;
18188;SDS011;9219;50.396;8.546;2024-02-21T15:29:31;6.50;;;2.77;;
18188;SDS011;9219;50.396;8.546;2024-02-21T15:31:59;8.37;;;3.00;;
18188;SDS011;9219;50.396;8.546;2024-02-21T15:34:26;7.03;;;3.23;;
18188;SDS011;9219;50.396;8.546;2024-02-21T15:36:53;8.40;;;2.90;;
18188;SDS011;9219;50.396;8.546;2024-02-21T15:39:21;9.53;;;2.63;;
18188;SDS011;9219;50.396;8.546;2024-02-21T15:41:49;6.77;;;2.67;;
18188;SDS011;9219;50.396;8.546;2024-02-21T15:44:16;8.50;;;2.87;;
18188;SDS011;9219;50.396;8.546;2024-02-21T15:46:44;5.30;;;2.67;;
18188;SDS011;9219;50.396;8.546;2024-02-21T15:54:18;8.20;;;3.00;;
18188;SDS011;9219;50.396;8.546;2024-02-21T15:56:49;13.47;;;2.90;;
18188;SDS011;9219;50.396;8.546;2024-02-21T15:59:17;8.17;;;2.70;;
18188;SDS011;9219;50.396;8.546;2024-02-21T16:01:44;7.93;;;1.93;;
18188;SDS011;9219;50.396;8.546;2024-02-21T16:04:12;6.73;;;2.10;;
18188;SDS011;9219;50.396;8.546;2024-02-21T16:06:41;6.77;;;2.57;;
18188;SDS011;9219;50.396;8.546;2024-02-21T16:09:09;5.13;;;2.43;;
18188;SDS011;9219;50.396;8.546;2024-02-21T16:11:38;8.60;;;2.30;;
18188;SDS011;9219;50.396;8.546;2024-02-21T16:15:29;6.57;;;2.20;;
18188;SDS011;9219;50.396;8.546;2024-02-21T16:17:57;8.97;;;2.63;;
18188;SDS011;9219;50.396;8.546;2024-02-21T16:20:24;6.03;;;2.10;;
18188;SDS011;9219;50.396;8.546;2024-02-21T16:22:51;5.63;;;2.17;;
18188;SDS011;9219;50.396;8.546;2024-02-21T16:25:19;5.27;;;2.47;;
18188;SDS011;9219;50.396;8.546;2024-02-21T16:27:46;5.33;;;2.10;;
18188;SDS011;9219;50.396;8.546;2024-02-21T16:30:14;7.30;;;2.60;;
18188;SDS011;9219;50.396;8.546;2024-02-21T16:35:27;7.37;;;2.30;;
18188;SDS011;9219;50.396;8.546;2024-02-21T16:37:55;5.83;;;2.70;;
18188;SDS011;9219;50.396;8.546;2024-02-21T16:40:22;9.43;;;2.03;;
18188;SDS011;9219;50.396;8.546;2024-02-21T16:42:50;8.27;;;3.27;;
18188;SDS011;9219;50.396;8.546;2024-02-21T16:45:17;11.40;;;2.47;;
18188;SDS011;9219;50.396;8.546;2024-02-21T16:47:44;8.47;;;2.20;;
18188;SDS011;9219;50.396;8.546;2024-02-21T16:50:12;7.67;;;2.40;;
18188;SDS011;9219;50.396;8.546;2024-02-21T16:52:40;3.53;;;2.20;;
18188;SDS011;9219;50.396;8.546;2024-02-21T17:02:34;9.77;;;4.13;;
18188;SDS011;9219;50.396;8.546;2024-02-21T17:05:17;3.93;;;2.27;;
18188;SDS011;9219;50.396;8.546;2024-02-21T17:07:45;9.47;;;2.93;;
18188;SDS011;9219;50.396;8.546;2024-02-21T17:10:13;9.07;;;2.40;;
18188;SDS011;9219;50.396;8.546;2024-02-21T17:12:40;13.17;;;4.43;;
18188;SDS011;9219;50.396;8.546;2024-02-21T17:15:08;7.43;;;2.77;;
18188;SDS011;9219;50.396;8.546;2024-02-21T17:17:38;7.57;;;3.33;;
18188;SDS011;9219;50.396;8.546;2024-02-21T17:20:06;8.17;;;3.07;;
18188;SDS011;9219;50.396;8.546;2024-02-21T17:26:29;9.73;;;2.70;;
18188;SDS011;9219;50.396;8.546;2024-02-21T17:28:56;14.50;;;3.17;;
18188;SDS011;9219;50.396;8.546;2024-02-21T17:31:23;13.47;;;3.10;;
18188;SDS011;9219;50.396;8.546;2024-02-21T17:33:50;8.53;;;3.43;;
18188;SDS011;9219;50.396;8.546;2024-02-21T17:36:18;9.03;;;2.93;;
18188;SDS011;9219;50.396;8.546;2024-02-21T17:38:45;9.80;;;2.70;;
18188;SDS011;9219;50.396;8.546;2024-02-21T17:41:14;4.43;;;2.60;;
18188;SDS011;9219;50.396;8.546;2024-02-21T17:43:43;11.47;;;3.07;;
18188;SDS011;9219;50.396;8.546;2024-02-21T17:51:13;3.80;;;2.23;;
18188;SDS011;9219;50.396;8.546;2024-02-21T17:53:40;8.97;;;3.57;;
18188;SDS011;9219;50.396;8.546;2024-02-21T17:56:08;5.07;;;2.47;;
18188;SDS011;9219;50.396;8.546;2024-02-21T17:58:35;8.40;;;2.57;;
18188;SDS011;9219;50.396;8.546;2024-02-21T18:01:03;6.33;;;3.03;;
18188;SDS011;9219;50.396;8.546;2024-02-21T18:03:30;5.23;;;2.67;;
18188;SDS011;9219;50.396;8.546;2024-02-21T18:05:58;7.77;;;2.67;;
18188;SDS011;9219;50.396;8.546;2024-02-21T18:11:55;11.63;;;2.87;;
18188;SDS011;9219;50.396;8.546;2024-02-21T18:14:24;13.13;;;2.03;;
18188;SDS011;9219;50.396;8.546;2024-02-21T18:16:51;8.60;;;2.60;;
18188;SDS011;9219;50.396;8.546;2024-02-21T18:19:19;5.03;;;2.60;;
18188;SDS011;9219;50.396;8.546;2024-02-21T18:21:46;4.20;;;2.37;;
18188;SDS011;9219;50.396;8.546;2024-02-21T18:24:13;9.73;;;2.40;;
18188;SDS011;9219;50.396;8.546;2024-02-21T18:26:41;8.10;;;2.53;;
18188;SDS011;9219;50.396;8.546;2024-02-21T18:31:52;11.73;;;2.57;;
18188;SDS011;9219;50.396;8.546;2024-02-21T18:34:19;6.07;;;2.20;;
18188;SDS011;9219;50.396;8.546;2024-02-21T18:36:46;3.83;;;1.83;;